Forest Heights, Oregon
Current Conditions -  °F | °C
As of 4:53 PM on Saturday 22 Nov 2014 (Local Time) from KHIO Reporting Station
Light Rain Light Rain  
Wind Chill: 49°   Ceiling: 5500
Heat Index: 49°   Visibility: 10mi
Dew Point: 44°   Wind: 0mph
Humidity: 83%   Direction: NA
Pressure: 30.09"   Gusts: NA
Location:  45.5526°N, 122.821°W
Report Text: KHIO 230053Z 00000KT 10SM -RA FEW037 BKN055 OVC075 09/07 A3009 RMK AO2 RAB11 SLP189 P0001 T00940067
Loading
Personal Weather Stations






























Interactive Weather Map New forecast layout! Learn more

10-Day Weather Forecast

Advertisements
Track Severe Weather on mobile